createdAt,value
2019-05-18T00:00:36.231Z,78.94
2019-05-18T00:04:43.104Z,79.18
2019-05-18T00:08:49.820Z,79.58
2019-05-18T00:12:56.524Z,79.57
2019-05-18T00:17:03.309Z,79.64
2019-05-18T00:21:09.969Z,79.13
2019-05-18T00:25:16.684Z,80.14
2019-05-18T00:29:23.414Z,81.12
2019-05-18T00:33:30.314Z,80.71
2019-05-18T00:37:37.081Z,81.20
2019-05-18T00:41:45.593Z,82.24
2019-05-18T00:45:52.419Z,82.23
2019-05-18T00:49:59.210Z,82.38
2019-05-18T00:54:06.017Z,82.78
2019-05-18T00:58:12.794Z,83.22
2019-05-18T01:02:19.548Z,84.22
2019-05-18T01:06:26.286Z,84.58
2019-05-18T01:10:32.989Z,84.64
2019-05-18T01:14:39.739Z,85.21
2019-05-18T01:18:46.457Z,85.00
2019-05-18T01:22:53.295Z,85.45
2019-05-18T01:27:00.448Z,85.75
2019-05-18T01:31:07.328Z,86.58
2019-05-18T01:35:14.307Z,86.67
2019-05-18T01:39:21.074Z,86.67
2019-05-18T01:43:27.964Z,86.34
2019-05-18T01:47:34.723Z,87.00
2019-05-18T01:51:41.501Z,87.00
2019-05-18T01:55:48.330Z,87.25
2019-05-18T01:59:55.135Z,86.52
2019-05-18T02:04:01.822Z,85.74
2019-05-18T02:08:08.711Z,86.69
2019-05-18T02:12:15.459Z,86.71
2019-05-18T02:16:23.219Z,86.19
2019-05-18T02:20:30.295Z,87.27
2019-05-18T02:24:40.038Z,87.03
2019-05-18T02:28:46.828Z,87.22
2019-05-18T02:32:53.588Z,86.24
2019-05-18T02:37:00.302Z,86.22
2019-05-18T02:41:08.085Z,86.45
2019-05-18T02:45:15.191Z,85.90
2019-05-18T02:49:22.950Z,86.04
2019-05-18T02:53:29.673Z,86.96
2019-05-18T02:57:36.349Z,87.20
2019-05-18T03:01:43.093Z,86.22
2019-05-18T03:05:49.790Z,85.37
2019-05-18T03:09:56.615Z,86.04
2019-05-18T03:14:03.487Z,86.51
2019-05-18T03:18:11.223Z,87.36
2019-05-18T03:22:18.093Z,87.59
2019-05-18T03:26:24.912Z,86.82
2019-05-18T03:30:32.001Z,87.76
2019-05-18T03:34:39.060Z,88.37
2019-05-18T03:38:46.059Z,88.98
2019-05-18T03:42:53.124Z,88.70
2019-05-18T03:47:00.206Z,88.47
2019-05-18T03:51:07.532Z,88.61
2019-05-18T03:55:14.691Z,88.73
2019-05-18T03:59:21.645Z,87.95
2019-05-18T04:03:28.644Z,88.01
2019-05-18T04:07:35.794Z,88.63
2019-05-18T04:11:42.928Z,88.51
2019-05-18T04:15:50.641Z,88.74
2019-05-18T04:19:57.475Z,87.74
2019-05-18T04:24:04.275Z,86.15
2019-05-18T04:28:11.012Z,86.41
2019-05-18T04:32:19.212Z,85.71
2019-05-18T04:36:25.918Z,85.29
2019-05-18T04:40:32.650Z,85.01
2019-05-18T04:44:39.356Z,84.76
2019-05-18T04:48:46.124Z,84.43
2019-05-18T04:52:52.913Z,84.37
2019-05-18T04:56:59.622Z,83.96
2019-05-18T05:01:06.343Z,84.04
2019-05-18T05:05:13.104Z,84.72
2019-05-18T05:09:19.880Z,84.43
2019-05-18T05:13:26.644Z,84.93
2019-05-18T05:17:33.557Z,84.40
2019-05-18T05:21:41.518Z,84.75
2019-05-18T05:25:48.391Z,84.68
2019-05-18T05:29:57.230Z,84.30
2019-05-18T05:34:04.906Z,83.27
2019-05-18T05:38:11.613Z,83.18
2019-05-18T05:42:21.030Z,83.14
2019-05-18T05:46:27.737Z,82.28
2019-05-18T05:50:36.810Z,82.04
2019-05-18T05:54:43.817Z,81.07
2019-05-18T05:58:50.895Z,80.29
2019-05-18T06:02:59.057Z,80.00
2019-05-18T06:07:08.892Z,79.44
2019-05-18T06:11:15.782Z,78.04
2019-05-18T06:15:22.899Z,78.50
2019-05-18T06:19:30.538Z,77.92
2019-05-18T06:23:40.521Z,77.43
2019-05-18T06:27:47.289Z,78.51
2019-05-18T06:31:59.725Z,78.14
2019-05-18T06:36:06.499Z,77.01
2019-05-18T06:40:13.372Z,77.26
2019-05-18T06:44:20.081Z,76.92
2019-05-18T06:48:26.874Z,76.36
2019-05-18T06:52:33.600Z,75.77
2019-05-18T06:56:41.817Z,74.52
2019-05-18T07:00:48.511Z,73.53
2019-05-18T07:04:55.245Z,72.00
2019-05-18T07:09:02.090Z,71.76
2019-05-18T07:13:10.434Z,70.81
2019-05-18T07:17:17.315Z,68.90
2019-05-18T07:21:24.008Z,68.49
2019-05-18T07:25:30.787Z,66.97
2019-05-18T07:29:37.480Z,66.19
2019-05-18T07:33:44.313Z,66.06
2019-05-18T07:37:53.168Z,66.20
2019-05-18T07:42:00.256Z,65.53
2019-05-18T07:46:08.821Z,64.99
2019-05-18T07:50:16.050Z,65.24
2019-05-18T07:54:22.854Z,65.05
2019-05-18T07:58:29.603Z,63.44
2019-05-18T08:02:36.328Z,63.04
2019-05-18T08:06:50.271Z,62.31
2019-05-18T08:10:57.517Z,63.44
2019-05-18T08:15:06.657Z,61.55
2019-05-18T08:19:13.399Z,59.46
2019-05-18T08:23:20.135Z,57.72
2019-05-18T08:27:30.652Z,57.08
2019-05-18T08:31:36.985Z,56.29
2019-05-18T08:35:43.720Z,54.65
2019-05-18T08:39:50.643Z,52.56
2019-05-18T08:43:57.419Z,52.71
2019-05-18T08:48:04.356Z,51.62
2019-05-18T08:52:11.132Z,50.87
2019-05-18T08:56:20.551Z,49.23
2019-05-18T09:00:27.449Z,47.54
2019-05-18T09:04:36.267Z,46.79
2019-05-18T09:08:45.974Z,46.48
2019-05-18T09:12:52.733Z,47.28
2019-05-18T09:16:59.697Z,45.52
2019-05-18T09:21:06.637Z,45.18
2019-05-18T09:25:15.357Z,44.58
2019-05-18T09:29:22.507Z,42.20
2019-05-18T09:33:30.213Z,41.00
2019-05-18T09:37:36.927Z,40.86
2019-05-18T09:41:47.538Z,40.86
2019-05-18T09:45:57.019Z,40.92
2019-05-18T09:50:05.175Z,40.20
2019-05-18T09:54:11.922Z,39.11
2019-05-18T09:58:18.696Z,39.75
2019-05-18T10:02:25.466Z,37.67
2019-05-18T10:06:32.285Z,38.55
2019-05-18T10:10:39.021Z,38.43
2019-05-18T10:14:45.927Z,38.50
2019-05-18T10:18:55.590Z,36.78
2019-05-18T10:23:12.842Z,36.38
2019-05-18T10:27:16.670Z,37.41
2019-05-18T10:31:23.485Z,37.42
2019-05-18T10:35:30.231Z,37.05
2019-05-18T10:39:38.837Z,36.31
2019-05-18T10:43:47.320Z,35.98
2019-05-18T10:47:54.200Z,35.94
2019-05-18T10:52:00.964Z,36.17
2019-05-18T10:56:10.420Z,35.55
2019-05-18T11:00:20.636Z,36.34
2019-05-18T11:04:27.397Z,35.38
2019-05-18T11:08:34.126Z,34.65
2019-05-18T11:12:41.386Z,34.36
2019-05-18T11:16:48.675Z,33.98
2019-05-18T11:20:58.504Z,32.68
2019-05-18T11:25:05.775Z,33.43
2019-05-18T11:29:12.516Z,34.10
2019-05-18T11:33:19.196Z,34.81
2019-05-18T11:37:26.000Z,33.90
2019-05-18T11:41:32.795Z,33.06
2019-05-18T11:45:39.693Z,35.92
2019-05-18T11:49:48.740Z,38.75
2019-05-18T11:53:58.384Z,39.94
2019-05-18T11:58:04.049Z,35.69
2019-05-18T12:02:11.751Z,34.88
2019-05-18T12:06:18.525Z,35.26
2019-05-18T12:10:26.825Z,35.63
2019-05-18T12:14:33.762Z,35.45
2019-05-18T12:18:44.207Z,35.13
2019-05-18T12:22:50.952Z,37.04
2019-05-18T12:26:57.715Z,36.25
2019-05-18T12:31:04.757Z,34.48
2019-05-18T12:35:13.911Z,34.22
2019-05-18T12:39:23.617Z,33.55
2019-05-18T12:43:30.986Z,33.46
2019-05-18T12:47:37.806Z,34.78
2019-05-18T12:51:44.577Z,34.58
2019-05-18T12:55:54.678Z,33.48
2019-05-18T13:00:01.452Z,33.09
2019-05-18T13:04:15.027Z,31.93
2019-05-18T13:08:21.791Z,34.26
2019-05-18T13:12:28.493Z,32.11
2019-05-18T13:16:36.779Z,31.85
2019-05-18T13:20:51.245Z,31.61
2019-05-18T13:24:59.542Z,33.09
2019-05-18T13:29:10.489Z,32.50
2019-05-18T13:33:26.472Z,33.10
2019-05-18T13:37:33.279Z,34.65
2019-05-18T13:41:41.294Z,33.36
2019-05-18T13:45:50.019Z,33.62
2019-05-18T13:49:58.349Z,32.47
2019-05-18T13:54:12.602Z,33.42
2019-05-18T13:58:21.196Z,31.01
2019-05-18T14:02:28.234Z,32.94
2019-05-18T14:06:35.319Z,32.85
2019-05-18T14:10:51.786Z,32.00
2019-05-18T14:15:07.633Z,31.47
2019-05-18T14:19:14.457Z,31.89
2019-05-18T14:23:21.221Z,31.86
2019-05-18T14:27:27.958Z,33.09
2019-05-18T14:31:34.671Z,32.67
2019-05-18T14:35:41.555Z,32.81
2019-05-18T14:39:49.340Z,32.84
2019-05-18T14:44:01.879Z,33.48
2019-05-18T14:48:11.613Z,33.30
2019-05-18T14:52:19.543Z,34.15
2019-05-18T14:56:28.084Z,33.54
2019-05-18T15:00:34.844Z,32.82
2019-05-18T15:04:43.316Z,32.73
2019-05-18T15:08:50.099Z,35.01
2019-05-18T15:12:56.784Z,35.13
2019-05-18T15:17:09.548Z,35.35
2019-05-18T15:21:25.155Z,35.50
2019-05-18T15:25:31.875Z,36.89
2019-05-18T15:29:39.751Z,41.21
2019-05-18T15:33:46.622Z,41.21
2019-05-18T15:37:53.392Z,41.03
2019-05-18T15:42:00.156Z,41.11
2019-05-18T15:46:07.029Z,42.19
2019-05-18T15:50:14.329Z,42.23
2019-05-18T15:54:21.992Z,42.54
2019-05-18T15:58:28.719Z,42.94
2019-05-18T16:02:35.609Z,42.86
2019-05-18T16:06:43.476Z,43.05
2019-05-18T16:10:50.251Z,42.82
2019-05-18T16:14:56.915Z,43.39
2019-05-18T16:19:03.870Z,43.66
2019-05-18T16:23:10.601Z,43.60
2019-05-18T16:27:17.497Z,43.80
2019-05-18T16:31:24.333Z,43.32
2019-05-18T16:35:31.491Z,43.19
2019-05-18T16:39:38.284Z,43.20
2019-05-18T16:43:46.184Z,43.54
2019-05-18T16:47:52.908Z,43.99
2019-05-18T16:51:59.745Z,44.11
2019-05-18T16:56:06.500Z,43.13
2019-05-18T17:00:16.163Z,41.77
2019-05-18T17:04:25.153Z,41.21
2019-05-18T17:08:31.932Z,41.48
2019-05-18T17:12:38.700Z,42.40
2019-05-18T17:16:45.628Z,42.69
2019-05-18T17:20:52.524Z,43.53
2019-05-18T17:24:59.435Z,44.68
2019-05-18T17:29:06.273Z,45.05
2019-05-18T17:33:13.014Z,43.52
2019-05-18T17:37:19.807Z,43.17
2019-05-18T17:41:26.590Z,44.06
2019-05-18T17:45:33.653Z,43.68
2019-05-18T17:49:42.295Z,43.95
2019-05-18T17:53:49.182Z,44.05
2019-05-18T17:57:55.964Z,44.32
2019-05-18T18:02:07.363Z,44.66
2019-05-18T18:06:16.997Z,45.48
2019-05-18T18:10:30.659Z,45.93
2019-05-18T18:14:38.678Z,45.97
2019-05-18T18:18:50.359Z,47.10
2019-05-18T18:22:56.807Z,47.60
2019-05-18T18:27:03.756Z,48.02
2019-05-18T18:31:10.677Z,48.37
2019-05-18T18:35:22.412Z,48.64
2019-05-18T18:39:29.138Z,48.95
2019-05-18T18:43:35.892Z,50.94
2019-05-18T18:47:43.677Z,53.54
2019-05-18T18:51:52.037Z,55.81
2019-05-18T18:55:58.856Z,56.29
2019-05-18T19:00:07.352Z,56.48
2019-05-18T19:04:14.153Z,57.38
2019-05-18T19:08:20.899Z,58.03
2019-05-18T19:12:27.640Z,57.83
2019-05-18T19:16:36.213Z,59.68
2019-05-18T19:21:21.046Z,60.55
2019-05-18T19:25:29.521Z,61.93
2019-05-18T19:29:45.344Z,61.56
2019-05-18T19:33:54.969Z,62.18
2019-05-18T19:38:02.547Z,63.00
2019-05-18T19:42:09.405Z,65.78
2019-05-18T19:46:16.246Z,67.16
2019-05-18T19:50:23.099Z,70.08
2019-05-18T19:54:29.941Z,70.12
2019-05-18T19:58:37.915Z,71.03
2019-05-18T20:02:44.722Z,72.72
2019-05-18T20:06:51.496Z,74.23
2019-05-18T20:10:58.380Z,76.03
2019-05-18T20:15:09.165Z,77.12
2019-05-18T20:19:14.101Z,76.76
2019-05-18T20:23:20.962Z,75.99
2019-05-18T20:27:27.681Z,79.71
2019-05-18T20:31:34.486Z,79.97
2019-05-18T20:35:41.337Z,79.66
2019-05-18T20:39:48.111Z,78.54
2019-05-18T20:43:55.008Z,79.82
2019-05-18T20:48:01.798Z,80.18
2019-05-18T20:52:08.765Z,81.10
2019-05-18T20:56:15.522Z,81.25
2019-05-18T21:00:22.701Z,81.50
2019-05-18T21:04:29.768Z,82.50
2019-05-18T21:08:36.970Z,82.99
2019-05-18T21:12:43.849Z,83.70
2019-05-18T21:16:50.729Z,82.86
2019-05-18T21:20:57.478Z,84.13
2019-05-18T21:25:04.370Z,83.54
2019-05-18T21:29:11.132Z,83.98
2019-05-18T21:33:17.879Z,84.19
2019-05-18T21:37:24.580Z,83.82
2019-05-18T21:41:34.388Z,83.22
2019-05-18T21:45:41.159Z,82.82
2019-05-18T21:49:50.368Z,83.48
2019-05-18T21:53:57.230Z,85.15
2019-05-18T21:58:03.992Z,84.89
2019-05-18T22:02:10.979Z,86.34
2019-05-18T22:06:17.803Z,88.51
2019-05-18T22:10:26.047Z,90.40
2019-05-18T22:14:33.097Z,90.79
2019-05-18T22:18:39.989Z,91.12
2019-05-18T22:22:46.827Z,89.90
2019-05-18T22:26:53.619Z,90.16
2019-05-18T22:31:00.424Z,88.75
2019-05-18T22:35:08.034Z,88.43
2019-05-18T22:39:14.715Z,88.73
2019-05-18T22:43:21.580Z,88.35
2019-05-18T22:47:28.304Z,88.64
2019-05-18T22:51:35.026Z,88.46
2019-05-18T22:55:41.872Z,87.19
2019-05-18T22:59:48.644Z,86.34
2019-05-18T23:03:56.039Z,84.97
2019-05-18T23:08:02.770Z,84.55
2019-05-18T23:12:09.444Z,84.78
2019-05-18T23:16:16.197Z,85.36
2019-05-18T23:20:22.962Z,85.72
2019-05-18T23:24:29.707Z,86.87
2019-05-18T23:28:36.691Z,86.78
2019-05-18T23:32:43.446Z,87.07
2019-05-18T23:36:51.265Z,87.36
2019-05-18T23:40:57.959Z,88.23
2019-05-18T23:45:04.777Z,88.42
2019-05-18T23:49:12.644Z,87.97
2019-05-18T23:53:19.621Z,90.37
2019-05-18T23:57:26.779Z,90.35
